sensor_id;sensor_type;location;lat;lon;timestamp;P1;durP1;ratioP1;P2;durP2;ratioP2
9496;SDS011;4786;51.270;4.456;2023-06-24T00:00:19;5.43;;;4.00;;
9496;SDS011;4786;51.270;4.456;2023-06-24T00:02:46;6.03;;;4.03;;
9496;SDS011;4786;51.270;4.456;2023-06-24T00:05:12;3.80;;;3.50;;
9496;SDS011;4786;51.270;4.456;2023-06-24T00:07:38;8.30;;;4.00;;
9496;SDS011;4786;51.270;4.456;2023-06-24T00:10:11;6.00;;;4.13;;
9496;SDS011;4786;51.270;4.456;2023-06-24T00:12:38;5.53;;;3.57;;
9496;SDS011;4786;51.270;4.456;2023-06-24T00:15:05;4.60;;;4.20;;
9496;SDS011;4786;51.270;4.456;2023-06-24T00:17:32;7.67;;;4.00;;
9496;SDS011;4786;51.270;4.456;2023-06-24T00:19:58;4.63;;;3.80;;
9496;SDS011;4786;51.270;4.456;2023-06-24T00:22:23;6.97;;;3.73;;
9496;SDS011;4786;51.270;4.456;2023-06-24T00:24:55;8.37;;;3.90;;
9496;SDS011;4786;51.270;4.456;2023-06-24T00:27:21;4.97;;;3.80;;
9496;SDS011;4786;51.270;4.456;2023-06-24T00:29:47;5.03;;;3.63;;
9496;SDS011;4786;51.270;4.456;2023-06-24T00:32:13;6.47;;;4.03;;
9496;SDS011;4786;51.270;4.456;2023-06-24T00:34:38;4.30;;;3.90;;
9496;SDS011;4786;51.270;4.456;2023-06-24T00:37:08;5.53;;;4.10;;
9496;SDS011;4786;51.270;4.456;2023-06-24T00:39:35;7.13;;;4.00;;
9496;SDS011;4786;51.270;4.456;2023-06-24T00:42:01;5.30;;;4.20;;
9496;SDS011;4786;51.270;4.456;2023-06-24T00:44:27;4.27;;;3.87;;
9496;SDS011;4786;51.270;4.456;2023-06-24T00:46:53;6.83;;;3.97;;
9496;SDS011;4786;51.270;4.456;2023-06-24T00:49:20;5.47;;;4.30;;
9496;SDS011;4786;51.270;4.456;2023-06-24T00:51:46;5.83;;;3.97;;
9496;SDS011;4786;51.270;4.456;2023-06-24T00:54:18;8.77;;;4.27;;
9496;SDS011;4786;51.270;4.456;2023-06-24T00:56:45;4.30;;;3.90;;
9496;SDS011;4786;51.270;4.456;2023-06-24T00:59:12;4.23;;;3.80;;
9496;SDS011;4786;51.270;4.456;2023-06-24T01:01:40;4.77;;;4.17;;
9496;SDS011;4786;51.270;4.456;2023-06-24T01:04:06;5.77;;;3.87;;
9496;SDS011;4786;51.270;4.456;2023-06-24T01:06:34;4.70;;;3.93;;
9496;SDS011;4786;51.270;4.456;2023-06-24T01:09:02;3.97;;;3.60;;
9496;SDS011;4786;51.270;4.456;2023-06-24T01:11:30;5.43;;;3.90;;
9496;SDS011;4786;51.270;4.456;2023-06-24T01:13:56;4.00;;;3.60;;
9496;SDS011;4786;51.270;4.456;2023-06-24T01:16:26;4.50;;;3.87;;
9496;SDS011;4786;51.270;4.456;2023-06-24T01:20:02;4.60;;;4.10;;
9496;SDS011;4786;51.270;4.456;2023-06-24T01:28:05;4.87;;;3.97;;
9496;SDS011;4786;51.270;4.456;2023-06-24T01:30:46;7.00;;;4.50;;
9496;SDS011;4786;51.270;4.456;2023-06-24T01:33:15;4.67;;;4.00;;
9496;SDS011;4786;51.270;4.456;2023-06-24T01:35:47;9.10;;;4.40;;
9496;SDS011;4786;51.270;4.456;2023-06-24T01:38:21;4.80;;;4.10;;
9496;SDS011;4786;51.270;4.456;2023-06-24T01:40:50;4.63;;;4.23;;
9496;SDS011;4786;51.270;4.456;2023-06-24T01:43:17;4.63;;;4.23;;
9496;SDS011;4786;51.270;4.456;2023-06-24T01:45:48;7.53;;;5.00;;
9496;SDS011;4786;51.270;4.456;2023-06-24T01:48:27;4.47;;;3.67;;
9496;SDS011;4786;51.270;4.456;2023-06-24T01:53:28;5.57;;;4.00;;
9496;SDS011;4786;51.270;4.456;2023-06-24T01:55:57;6.20;;;4.20;;
9496;SDS011;4786;51.270;4.456;2023-06-24T01:58:26;5.73;;;4.20;;
9496;SDS011;4786;51.270;4.456;2023-06-24T02:00:53;5.03;;;4.53;;
9496;SDS011;4786;51.270;4.456;2023-06-24T02:03:20;4.70;;;4.07;;
9496;SDS011;4786;51.270;4.456;2023-06-24T02:05:48;5.10;;;4.60;;
9496;SDS011;4786;51.270;4.456;2023-06-24T02:08:15;4.80;;;4.30;;
9496;SDS011;4786;51.270;4.456;2023-06-24T02:10:43;7.27;;;4.50;;
9496;SDS011;4786;51.270;4.456;2023-06-24T02:13:11;5.17;;;4.67;;
9496;SDS011;4786;51.270;4.456;2023-06-24T02:15:38;6.63;;;5.00;;
9496;SDS011;4786;51.270;4.456;2023-06-24T02:18:06;8.77;;;4.57;;
9496;SDS011;4786;51.270;4.456;2023-06-24T02:20:34;6.27;;;4.47;;
9496;SDS011;4786;51.270;4.456;2023-06-24T02:23:01;7.33;;;4.87;;
9496;SDS011;4786;51.270;4.456;2023-06-24T02:25:30;4.73;;;4.27;;
9496;SDS011;4786;51.270;4.456;2023-06-24T02:27:56;5.07;;;4.27;;
9496;SDS011;4786;51.270;4.456;2023-06-24T02:30:22;6.50;;;4.80;;
9496;SDS011;4786;51.270;4.456;2023-06-24T02:32:50;7.83;;;5.03;;
9496;SDS011;4786;51.270;4.456;2023-06-24T02:35:16;5.73;;;4.70;;
9496;SDS011;4786;51.270;4.456;2023-06-24T02:37:43;5.80;;;4.63;;
9496;SDS011;4786;51.270;4.456;2023-06-24T02:40:09;10.33;;;5.27;;
9496;SDS011;4786;51.270;4.456;2023-06-24T02:42:36;5.87;;;4.90;;
9496;SDS011;4786;51.270;4.456;2023-06-24T02:45:02;6.50;;;4.60;;
9496;SDS011;4786;51.270;4.456;2023-06-24T02:47:29;6.27;;;4.90;;
9496;SDS011;4786;51.270;4.456;2023-06-24T02:49:56;4.87;;;4.07;;
9496;SDS011;4786;51.270;4.456;2023-06-24T02:52:22;5.57;;;4.60;;
9496;SDS011;4786;51.270;4.456;2023-06-24T02:54:49;5.40;;;4.87;;
9496;SDS011;4786;51.270;4.456;2023-06-24T02:57:15;6.23;;;4.67;;
9496;SDS011;4786;51.270;4.456;2023-06-24T02:59:42;8.33;;;5.33;;
9496;SDS011;4786;51.270;4.456;2023-06-24T03:02:08;9.50;;;5.00;;
9496;SDS011;4786;51.270;4.456;2023-06-24T03:04:34;5.30;;;4.80;;
9496;SDS011;4786;51.270;4.456;2023-06-24T03:07:00;5.13;;;4.70;;
9496;SDS011;4786;51.270;4.456;2023-06-24T03:09:27;5.73;;;4.73;;
9496;SDS011;4786;51.270;4.456;2023-06-24T03:11:53;6.83;;;5.03;;
9496;SDS011;4786;51.270;4.456;2023-06-24T03:14:19;5.47;;;4.90;;
9496;SDS011;4786;51.270;4.456;2023-06-24T03:16:45;5.83;;;4.87;;
9496;SDS011;4786;51.270;4.456;2023-06-24T03:19:12;7.57;;;4.93;;
9496;SDS011;4786;51.270;4.456;2023-06-24T03:21:38;4.90;;;4.50;;
9496;SDS011;4786;51.270;4.456;2023-06-24T03:24:04;5.17;;;4.67;;
9496;SDS011;4786;51.270;4.456;2023-06-24T03:26:31;6.40;;;5.00;;
9496;SDS011;4786;51.270;4.456;2023-06-24T03:28:58;5.17;;;4.67;;
9496;SDS011;4786;51.270;4.456;2023-06-24T03:31:24;6.00;;;5.30;;
9496;SDS011;4786;51.270;4.456;2023-06-24T03:33:50;5.70;;;5.00;;
9496;SDS011;4786;51.270;4.456;2023-06-24T03:36:16;7.77;;;5.17;;
9496;SDS011;4786;51.270;4.456;2023-06-24T03:38:42;5.77;;;5.20;;
9496;SDS011;4786;51.270;4.456;2023-06-24T03:41:08;6.27;;;5.30;;
9496;SDS011;4786;51.270;4.456;2023-06-24T03:43:34;5.90;;;5.10;;
9496;SDS011;4786;51.270;4.456;2023-06-24T03:46:00;7.40;;;5.10;;
9496;SDS011;4786;51.270;4.456;2023-06-24T03:48:26;6.40;;;4.97;;
9496;SDS011;4786;51.270;4.456;2023-06-24T03:50:52;5.37;;;4.87;;
9496;SDS011;4786;51.270;4.456;2023-06-24T03:53:18;6.17;;;5.03;;
9496;SDS011;4786;51.270;4.456;2023-06-24T03:55:44;6.97;;;4.97;;
9496;SDS011;4786;51.270;4.456;2023-06-24T03:58:10;7.60;;;4.90;;
9496;SDS011;4786;51.270;4.456;2023-06-24T04:00:36;9.20;;;4.93;;
9496;SDS011;4786;51.270;4.456;2023-06-24T04:03:05;5.47;;;4.60;;
9496;SDS011;4786;51.270;4.456;2023-06-24T04:05:32;5.40;;;4.87;;
9496;SDS011;4786;51.270;4.456;2023-06-24T04:07:59;5.23;;;4.80;;
9496;SDS011;4786;51.270;4.456;2023-06-24T04:10:25;7.43;;;4.60;;
9496;SDS011;4786;51.270;4.456;2023-06-24T04:12:51;5.03;;;4.53;;
9496;SDS011;4786;51.270;4.456;2023-06-24T04:15:17;5.57;;;4.23;;
9496;SDS011;4786;51.270;4.456;2023-06-24T04:17:43;4.57;;;4.13;;
9496;SDS011;4786;51.270;4.456;2023-06-24T04:20:09;5.50;;;4.20;;
9496;SDS011;4786;51.270;4.456;2023-06-24T04:22:39;4.87;;;4.47;;
9496;SDS011;4786;51.270;4.456;2023-06-24T04:25:06;7.53;;;4.40;;
9496;SDS011;4786;51.270;4.456;2023-06-24T04:27:33;4.93;;;4.50;;
9496;SDS011;4786;51.270;4.456;2023-06-24T04:29:59;4.80;;;4.40;;
9496;SDS011;4786;51.270;4.456;2023-06-24T04:32:26;5.30;;;4.87;;
9496;SDS011;4786;51.270;4.456;2023-06-24T04:34:51;6.37;;;4.87;;
9496;SDS011;4786;51.270;4.456;2023-06-24T04:37:18;5.30;;;4.83;;
9496;SDS011;4786;51.270;4.456;2023-06-24T04:39:44;5.23;;;4.73;;
9496;SDS011;4786;51.270;4.456;2023-06-24T04:42:10;5.50;;;5.00;;
9496;SDS011;4786;51.270;4.456;2023-06-24T04:44:37;5.70;;;4.67;;
9496;SDS011;4786;51.270;4.456;2023-06-24T04:47:03;5.60;;;5.00;;
9496;SDS011;4786;51.270;4.456;2023-06-24T04:49:29;5.37;;;4.87;;
9496;SDS011;4786;51.270;4.456;2023-06-24T04:51:55;4.90;;;4.40;;
9496;SDS011;4786;51.270;4.456;2023-06-24T04:54:21;6.60;;;4.53;;
9496;SDS011;4786;51.270;4.456;2023-06-24T04:56:47;5.30;;;4.80;;
9496;SDS011;4786;51.270;4.456;2023-06-24T04:59:14;5.00;;;4.50;;
9496;SDS011;4786;51.270;4.456;2023-06-24T05:01:40;5.53;;;4.47;;
9496;SDS011;4786;51.270;4.456;2023-06-24T05:04:06;6.10;;;4.70;;
9496;SDS011;4786;51.270;4.456;2023-06-24T05:06:32;5.17;;;4.67;;
9496;SDS011;4786;51.270;4.456;2023-06-24T05:08:58;6.47;;;5.87;;
9496;SDS011;4786;51.270;4.456;2023-06-24T05:11:24;5.63;;;4.73;;
9496;SDS011;4786;51.270;4.456;2023-06-24T05:13:50;5.03;;;4.60;;
9496;SDS011;4786;51.270;4.456;2023-06-24T05:16:16;5.00;;;4.50;;
9496;SDS011;4786;51.270;4.456;2023-06-24T05:18:43;4.60;;;4.20;;
9496;SDS011;4786;51.270;4.456;2023-06-24T05:21:09;4.70;;;4.30;;
9496;SDS011;4786;51.270;4.456;2023-06-24T05:23:35;5.70;;;4.65;;
9496;SDS011;4786;51.270;4.456;2023-06-24T05:26:01;5.50;;;4.20;;
9496;SDS011;4786;51.270;4.456;2023-06-24T05:28:27;5.35;;;3.78;;
9496;SDS011;4786;51.270;4.456;2023-06-24T05:30:53;5.82;;;4.60;;
9496;SDS011;4786;51.270;4.456;2023-06-24T05:33:19;5.57;;;5.05;;
9496;SDS011;4786;51.270;4.456;2023-06-24T05:35:44;5.38;;;4.40;;
9496;SDS011;4786;51.270;4.456;2023-06-24T05:38:10;8.30;;;4.55;;
9496;SDS011;4786;51.270;4.456;2023-06-24T05:40:36;6.43;;;5.00;;
9496;SDS011;4786;51.270;4.456;2023-06-24T05:43:02;6.25;;;5.32;;
9496;SDS011;4786;51.270;4.456;2023-06-24T05:45:28;6.65;;;4.70;;
9496;SDS011;4786;51.270;4.456;2023-06-24T05:47:54;5.78;;;4.90;;
9496;SDS011;4786;51.270;4.456;2023-06-24T05:50:20;5.40;;;4.90;;
9496;SDS011;4786;51.270;4.456;2023-06-24T05:52:46;5.50;;;4.40;;
9496;SDS011;4786;51.270;4.456;2023-06-24T05:55:12;6.15;;;5.05;;
9496;SDS011;4786;51.270;4.456;2023-06-24T05:57:39;5.68;;;5.07;;
9496;SDS011;4786;51.270;4.456;2023-06-24T06:00:05;5.78;;;4.03;;
9496;SDS011;4786;51.270;4.456;2023-06-24T06:02:32;5.53;;;4.85;;
9496;SDS011;4786;51.270;4.456;2023-06-24T06:04:58;4.47;;;4.07;;
9496;SDS011;4786;51.270;4.456;2023-06-24T06:07:25;6.05;;;5.35;;
9496;SDS011;4786;51.270;4.456;2023-06-24T06:09:51;5.55;;;5.05;;
9496;SDS011;4786;51.270;4.456;2023-06-24T06:12:16;5.47;;;4.97;;
9496;SDS011;4786;51.270;4.456;2023-06-24T06:14:42;8.38;;;5.95;;
9496;SDS011;4786;51.270;4.456;2023-06-24T06:17:08;6.68;;;6.05;;
9496;SDS011;4786;51.270;4.456;2023-06-24T06:19:34;6.80;;;6.10;;
9496;SDS011;4786;51.270;4.456;2023-06-24T06:21:59;6.90;;;6.30;;
9496;SDS011;4786;51.270;4.456;2023-06-24T06:24:25;5.32;;;4.82;;
9496;SDS011;4786;51.270;4.456;2023-06-24T06:26:51;7.78;;;6.22;;
9496;SDS011;4786;51.270;4.456;2023-06-24T06:29:17;6.47;;;5.88;;
9496;SDS011;4786;51.270;4.456;2023-06-24T06:31:43;7.70;;;6.28;;
9496;SDS011;4786;51.270;4.456;2023-06-24T06:34:09;7.32;;;6.50;;
9496;SDS011;4786;51.270;4.456;2023-06-24T06:36:35;6.63;;;5.95;;
9496;SDS011;4786;51.270;4.456;2023-06-24T06:39:00;7.75;;;6.50;;
9496;SDS011;4786;51.270;4.456;2023-06-24T06:41:27;8.13;;;6.68;;
9496;SDS011;4786;51.270;4.456;2023-06-24T06:43:55;6.43;;;5.80;;
9496;SDS011;4786;51.270;4.456;2023-06-24T06:46:21;6.80;;;6.05;;
9496;SDS011;4786;51.270;4.456;2023-06-24T06:48:47;7.28;;;6.57;;
9496;SDS011;4786;51.270;4.456;2023-06-24T06:51:13;6.03;;;5.45;;
9496;SDS011;4786;51.270;4.456;2023-06-24T06:53:39;8.07;;;7.28;;
9496;SDS011;4786;51.270;4.456;2023-06-24T06:56:05;7.95;;;6.53;;
9496;SDS011;4786;51.270;4.456;2023-06-24T06:58:32;7.25;;;6.65;;
9496;SDS011;4786;51.270;4.456;2023-06-24T07:00:58;7.35;;;6.65;;
9496;SDS011;4786;51.270;4.456;2023-06-24T07:03:26;8.05;;;6.60;;
9496;SDS011;4786;51.270;4.456;2023-06-24T07:05:53;7.90;;;7.15;;
9496;SDS011;4786;51.270;4.456;2023-06-24T07:08:19;11.02;;;7.40;;
9496;SDS011;4786;51.270;4.456;2023-06-24T07:10:45;8.02;;;6.78;;
9496;SDS011;4786;51.270;4.456;2023-06-24T07:13:11;7.80;;;6.55;;
9496;SDS011;4786;51.270;4.456;2023-06-24T07:15:37;7.47;;;6.10;;
9496;SDS011;4786;51.270;4.456;2023-06-24T07:18:02;8.68;;;7.80;;
9496;SDS011;4786;51.270;4.456;2023-06-24T07:20:29;7.13;;;6.45;;
9496;SDS011;4786;51.270;4.456;2023-06-24T07:22:54;7.10;;;6.50;;
9496;SDS011;4786;51.270;4.456;2023-06-24T07:25:20;8.95;;;7.00;;
9496;SDS011;4786;51.270;4.456;2023-06-24T07:27:46;8.15;;;7.13;;
9496;SDS011;4786;51.270;4.456;2023-06-24T07:30:12;7.68;;;6.97;;
9496;SDS011;4786;51.270;4.456;2023-06-24T07:32:41;7.70;;;6.97;;
9496;SDS011;4786;51.270;4.456;2023-06-24T07:35:07;7.95;;;7.05;;
9496;SDS011;4786;51.270;4.456;2023-06-24T07:37:34;10.35;;;8.05;;
9496;SDS011;4786;51.270;4.456;2023-06-24T07:40:00;10.73;;;6.78;;
9496;SDS011;4786;51.270;4.456;2023-06-24T07:42:27;7.70;;;7.00;;
9496;SDS011;4786;51.270;4.456;2023-06-24T07:44:53;6.88;;;6.18;;
9496;SDS011;4786;51.270;4.456;2023-06-24T07:47:19;10.07;;;6.28;;
9496;SDS011;4786;51.270;4.456;2023-06-24T07:49:45;7.38;;;6.68;;
9496;SDS011;4786;51.270;4.456;2023-06-24T07:52:11;11.02;;;7.00;;
9496;SDS011;4786;51.270;4.456;2023-06-24T07:54:37;11.45;;;7.03;;
9496;SDS011;4786;51.270;4.456;2023-06-24T07:57:03;7.00;;;6.30;;
9496;SDS011;4786;51.270;4.456;2023-06-24T07:59:29;9.15;;;7.15;;
9496;SDS011;4786;51.270;4.456;2023-06-24T08:01:56;6.68;;;6.00;;
9496;SDS011;4786;51.270;4.456;2023-06-24T08:04:22;7.85;;;7.00;;
9496;SDS011;4786;51.270;4.456;2023-06-24T08:06:48;6.80;;;6.13;;
9496;SDS011;4786;51.270;4.456;2023-06-24T08:09:15;7.10;;;6.35;;
9496;SDS011;4786;51.270;4.456;2023-06-24T08:11:41;7.75;;;6.97;;
9496;SDS011;4786;51.270;4.456;2023-06-24T08:14:08;7.10;;;6.40;;
9496;SDS011;4786;51.270;4.456;2023-06-24T08:16:34;14.85;;;6.28;;
9496;SDS011;4786;51.270;4.456;2023-06-24T08:19:00;7.95;;;6.88;;
9496;SDS011;4786;51.270;4.456;2023-06-24T08:21:26;7.28;;;6.55;;
9496;SDS011;4786;51.270;4.456;2023-06-24T08:23:52;7.72;;;6.93;;
9496;SDS011;4786;51.270;4.456;2023-06-24T08:26:19;7.35;;;6.57;;
9496;SDS011;4786;51.270;4.456;2023-06-24T08:28:46;7.60;;;6.85;;
9496;SDS011;4786;51.270;4.456;2023-06-24T08:31:13;6.70;;;6.10;;
9496;SDS011;4786;51.270;4.456;2023-06-24T08:33:43;6.90;;;5.60;;
9496;SDS011;4786;51.270;4.456;2023-06-24T08:36:10;6.00;;;5.20;;
9496;SDS011;4786;51.270;4.456;2023-06-24T08:38:36;7.38;;;6.13;;
9496;SDS011;4786;51.270;4.456;2023-06-24T08:41:02;7.53;;;5.75;;
9496;SDS011;4786;51.270;4.456;2023-06-24T08:43:28;6.38;;;5.78;;
9496;SDS011;4786;51.270;4.456;2023-06-24T08:45:55;7.22;;;6.53;;
9496;SDS011;4786;51.270;4.456;2023-06-24T08:48:21;6.32;;;5.53;;
9496;SDS011;4786;51.270;4.456;2023-06-24T08:50:52;6.30;;;5.20;;
9496;SDS011;4786;51.270;4.456;2023-06-24T08:53:23;5.45;;;4.53;;
9496;SDS011;4786;51.270;4.456;2023-06-24T08:55:53;8.85;;;4.60;;
9496;SDS011;4786;51.270;4.456;2023-06-24T08:58:19;6.35;;;4.60;;
9496;SDS011;4786;51.270;4.456;2023-06-24T09:00:46;6.20;;;4.22;;
9496;SDS011;4786;51.270;4.456;2023-06-24T09:03:11;4.43;;;4.03;;
9496;SDS011;4786;51.270;4.456;2023-06-24T09:05:37;6.88;;;4.82;;
9496;SDS011;4786;51.270;4.456;2023-06-24T09:08:03;5.80;;;4.20;;
9496;SDS011;4786;51.270;4.456;2023-06-24T09:10:33;4.10;;;3.70;;
9496;SDS011;4786;51.270;4.456;2023-06-24T09:13:03;4.82;;;4.20;;
9496;SDS011;4786;51.270;4.456;2023-06-24T09:15:39;6.18;;;4.10;;
9496;SDS011;4786;51.270;4.456;2023-06-24T09:18:05;3.55;;;3.08;;
9496;SDS011;4786;51.270;4.456;2023-06-24T09:20:32;3.53;;;3.03;;
9496;SDS011;4786;51.270;4.456;2023-06-24T09:23:04;3.35;;;2.83;;
9496;SDS011;4786;51.270;4.456;2023-06-24T09:25:30;4.28;;;3.13;;
9496;SDS011;4786;51.270;4.456;2023-06-24T09:28:00;3.63;;;2.47;;
9496;SDS011;4786;51.270;4.456;2023-06-24T09:30:26;4.68;;;2.47;;
9496;SDS011;4786;51.270;4.456;2023-06-24T09:32:53;2.72;;;2.40;;
9496;SDS011;4786;51.270;4.456;2023-06-24T09:35:20;4.10;;;2.42;;
9496;SDS011;4786;51.270;4.456;2023-06-24T09:37:48;3.67;;;2.55;;
9496;SDS011;4786;51.270;4.456;2023-06-24T09:40:21;4.15;;;2.42;;
9496;SDS011;4786;51.270;4.456;2023-06-24T09:42:55;4.43;;;2.60;;
9496;SDS011;4786;51.270;4.456;2023-06-24T09:45:26;3.72;;;2.47;;
9496;SDS011;4786;51.270;4.456;2023-06-24T09:47:53;3.00;;;2.70;;
9496;SDS011;4786;51.270;4.456;2023-06-24T09:50:20;3.03;;;2.50;;
9496;SDS011;4786;51.270;4.456;2023-06-24T09:52:46;2.35;;;2.20;;
9496;SDS011;4786;51.270;4.456;2023-06-24T09:55:14;3.55;;;2.88;;
9496;SDS011;4786;51.270;4.456;2023-06-24T09:57:44;2.58;;;2.30;;
9496;SDS011;4786;51.270;4.456;2023-06-24T10:00:16;3.50;;;2.70;;
9496;SDS011;4786;51.270;4.456;2023-06-24T10:02:44;5.22;;;2.60;;
9496;SDS011;4786;51.270;4.456;2023-06-24T10:05:14;6.45;;;2.85;;
9496;SDS011;4786;51.270;4.456;2023-06-24T10:07:40;2.63;;;2.40;;
9496;SDS011;4786;51.270;4.456;2023-06-24T10:10:07;2.70;;;2.45;;
9496;SDS011;4786;51.270;4.456;2023-06-24T10:12:37;3.55;;;2.80;;
9496;SDS011;4786;51.270;4.456;2023-06-24T10:15:04;6.53;;;2.72;;
9496;SDS011;4786;51.270;4.456;2023-06-24T10:17:31;2.95;;;2.30;;
9496;SDS011;4786;51.270;4.456;2023-06-24T10:19:57;4.35;;;2.75;;
9496;SDS011;4786;51.270;4.456;2023-06-24T10:22:23;3.13;;;2.60;;
9496;SDS011;4786;51.270;4.456;2023-06-24T10:24:51;4.40;;;2.90;;
9496;SDS011;4786;51.270;4.456;2023-06-24T10:27:19;2.70;;;2.50;;
9496;SDS011;4786;51.270;4.456;2023-06-24T10:29:51;5.15;;;2.65;;
9496;SDS011;4786;51.270;4.456;2023-06-24T10:32:19;4.60;;;2.58;;
9496;SDS011;4786;51.270;4.456;2023-06-24T10:34:47;3.50;;;2.55;;
9496;SDS011;4786;51.270;4.456;2023-06-24T10:37:21;6.28;;;2.58;;
9496;SDS011;4786;51.270;4.456;2023-06-24T10:39:57;3.15;;;2.50;;
9496;SDS011;4786;51.270;4.456;2023-06-24T10:47:34;2.45;;;2.25;;
9496;SDS011;4786;51.270;4.456;2023-06-24T10:50:11;3.00;;;2.33;;
9496;SDS011;4786;51.270;4.456;2023-06-24T10:52:39;3.67;;;2.28;;
9496;SDS011;4786;51.270;4.456;2023-06-24T10:55:08;3.60;;;2.40;;
9496;SDS011;4786;51.270;4.456;2023-06-24T10:57:34;4.38;;;2.80;;
9496;SDS011;4786;51.270;4.456;2023-06-24T11:00:00;2.63;;;2.42;;
9496;SDS011;4786;51.270;4.456;2023-06-24T11:02:28;2.65;;;2.45;;
9496;SDS011;4786;51.270;4.456;2023-06-24T11:04:58;4.47;;;2.40;;
9496;SDS011;4786;51.270;4.456;2023-06-24T11:07:25;2.85;;;2.60;;
9496;SDS011;4786;51.270;4.456;2023-06-24T11:09:56;3.05;;;2.63;;
9496;SDS011;4786;51.270;4.456;2023-06-24T11:12:27;3.20;;;2.90;;
9496;SDS011;4786;51.270;4.456;2023-06-24T11:14:58;3.38;;;2.42;;
9496;SDS011;4786;51.270;4.456;2023-06-24T11:17:26;2.72;;;2.53;;
9496;SDS011;4786;51.270;4.456;2023-06-24T11:19:52;2.80;;;2.60;;
9496;SDS011;4786;51.270;4.456;2023-06-24T11:22:20;3.85;;;2.70;;
9496;SDS011;4786;51.270;4.456;2023-06-24T11:24:46;6.90;;;2.65;;
9496;SDS011;4786;51.270;4.456;2023-06-24T11:27:13;3.65;;;3.03;;
9496;SDS011;4786;51.270;4.456;2023-06-24T11:29:38;3.53;;;2.85;;
9496;SDS011;4786;51.270;4.456;2023-06-24T11:32:07;3.40;;;3.10;;
9496;SDS011;4786;51.270;4.456;2023-06-24T11:34:34;3.10;;;2.88;;
9496;SDS011;4786;51.270;4.456;2023-06-24T11:37:15;3.35;;;2.78;;
9496;SDS011;4786;51.270;4.456;2023-06-24T11:39:42;4.55;;;3.33;;
9496;SDS011;4786;51.270;4.456;2023-06-24T11:42:09;3.22;;;2.92;;
9496;SDS011;4786;51.270;4.456;2023-06-24T11:44:43;6.18;;;3.05;;
9496;SDS011;4786;51.270;4.456;2023-06-24T11:47:09;3.60;;;3.30;;
9496;SDS011;4786;51.270;4.456;2023-06-24T11:49:51;3.88;;;3.10;;
9496;SDS011;4786;51.270;4.456;2023-06-24T11:52:37;4.70;;;2.40;;
9496;SDS011;4786;51.270;4.456;2023-06-24T11:55:21;2.95;;;2.65;;
9496;SDS011;4786;51.270;4.456;2023-06-24T12:00:36;4.07;;;2.83;;
9496;SDS011;4786;51.270;4.456;2023-06-24T12:03:04;3.53;;;3.05;;
9496;SDS011;4786;51.270;4.456;2023-06-24T12:05:33;3.20;;;3.00;;
9496;SDS011;4786;51.270;4.456;2023-06-24T12:08:01;3.45;;;2.83;;
9496;SDS011;4786;51.270;4.456;2023-06-24T12:10:30;5.70;;;2.95;;
9496;SDS011;4786;51.270;4.456;2023-06-24T12:13:00;3.53;;;2.97;;
9496;SDS011;4786;51.270;4.456;2023-06-24T12:15:27;4.00;;;3.13;;
9496;SDS011;4786;51.270;4.456;2023-06-24T12:17:54;3.20;;;2.90;;
9496;SDS011;4786;51.270;4.456;2023-06-24T12:20:21;4.63;;;2.65;;
9496;SDS011;4786;51.270;4.456;2023-06-24T12:22:47;3.28;;;2.80;;
9496;SDS011;4786;51.270;4.456;2023-06-24T12:25:15;2.97;;;2.67;;
9496;SDS011;4786;51.270;4.456;2023-06-24T12:27:42;5.63;;;2.80;;
9496;SDS011;4786;51.270;4.456;2023-06-24T12:30:09;3.03;;;2.63;;
9496;SDS011;4786;51.270;4.456;2023-06-24T12:32:36;2.92;;;2.60;;
9496;SDS011;4786;51.270;4.456;2023-06-24T12:35:03;3.75;;;3.00;;
9496;SDS011;4786;51.270;4.456;2023-06-24T12:37:32;3.97;;;2.70;;
9496;SDS011;4786;51.270;4.456;2023-06-24T12:40:02;3.75;;;2.70;;
9496;SDS011;4786;51.270;4.456;2023-06-24T12:42:29;3.20;;;2.90;;
9496;SDS011;4786;51.270;4.456;2023-06-24T12:44:56;3.15;;;2.85;;
9496;SDS011;4786;51.270;4.456;2023-06-24T12:47:22;2.55;;;2.35;;
9496;SDS011;4786;51.270;4.456;2023-06-24T12:49:48;3.65;;;2.58;;
9496;SDS011;4786;51.270;4.456;2023-06-24T12:52:14;2.90;;;2.70;;
9496;SDS011;4786;51.270;4.456;2023-06-24T12:54:41;3.10;;;2.80;;
9496;SDS011;4786;51.270;4.456;2023-06-24T12:57:07;2.92;;;2.58;;
9496;SDS011;4786;51.270;4.456;2023-06-24T12:59:33;3.20;;;2.40;;
9496;SDS011;4786;51.270;4.456;2023-06-24T13:01:59;4.40;;;2.50;;
9496;SDS011;4786;51.270;4.456;2023-06-24T13:04:25;3.00;;;2.72;;
9496;SDS011;4786;51.270;4.456;2023-06-24T13:06:52;4.70;;;2.75;;
9496;SDS011;4786;51.270;4.456;2023-06-24T13:09:18;2.88;;;2.63;;
9496;SDS011;4786;51.270;4.456;2023-06-24T13:11:45;4.65;;;2.72;;
9496;SDS011;4786;51.270;4.456;2023-06-24T13:14:12;3.30;;;2.58;;
9496;SDS011;4786;51.270;4.456;2023-06-24T13:16:38;4.10;;;3.00;;
9496;SDS011;4786;51.270;4.456;2023-06-24T13:19:04;3.80;;;2.67;;
9496;SDS011;4786;51.270;4.456;2023-06-24T13:21:31;3.60;;;2.88;;
9496;SDS011;4786;51.270;4.456;2023-06-24T13:23:56;3.10;;;2.80;;
9496;SDS011;4786;51.270;4.456;2023-06-24T13:26:23;2.75;;;2.55;;
9496;SDS011;4786;51.270;4.456;2023-06-24T13:28:49;2.97;;;2.70;;
9496;SDS011;4786;51.270;4.456;2023-06-24T13:31:15;2.67;;;2.47;;
9496;SDS011;4786;51.270;4.456;2023-06-24T13:33:41;3.58;;;2.70;;
9496;SDS011;4786;51.270;4.456;2023-06-24T13:36:07;3.15;;;2.65;;
9496;SDS011;4786;51.270;4.456;2023-06-24T13:38:38;3.22;;;2.92;;
9496;SDS011;4786;51.270;4.456;2023-06-24T13:41:04;2.75;;;2.55;;
9496;SDS011;4786;51.270;4.456;2023-06-24T13:43:30;3.05;;;2.55;;
9496;SDS011;4786;51.270;4.456;2023-06-24T13:45:55;2.70;;;2.50;;
9496;SDS011;4786;51.270;4.456;2023-06-24T13:48:21;2.85;;;2.50;;
9496;SDS011;4786;51.270;4.456;2023-06-24T13:50:49;2.55;;;2.35;;
9496;SDS011;4786;51.270;4.456;2023-06-24T13:53:15;2.83;;;2.60;;
9496;SDS011;4786;51.270;4.456;2023-06-24T13:55:41;2.78;;;2.42;;
9496;SDS011;4786;51.270;4.456;2023-06-24T13:58:07;2.45;;;2.30;;
9496;SDS011;4786;51.270;4.456;2023-06-24T14:00:34;3.03;;;2.72;;
9496;SDS011;4786;51.270;4.456;2023-06-24T14:02:59;2.83;;;2.58;;
9496;SDS011;4786;51.270;4.456;2023-06-24T14:05:25;4.20;;;3.00;;
9496;SDS011;4786;51.270;4.456;2023-06-24T14:07:51;3.58;;;2.80;;
9496;SDS011;4786;51.270;4.456;2023-06-24T14:10:17;3.50;;;2.70;;
9496;SDS011;4786;51.270;4.456;2023-06-24T14:12:43;3.20;;;2.90;;
9496;SDS011;4786;51.270;4.456;2023-06-24T14:15:09;3.20;;;2.70;;
9496;SDS011;4786;51.270;4.456;2023-06-24T14:17:36;3.30;;;2.83;;
9496;SDS011;4786;51.270;4.456;2023-06-24T14:20:01;3.08;;;2.42;;
9496;SDS011;4786;51.270;4.456;2023-06-24T14:22:28;3.67;;;2.80;;
9496;SDS011;4786;51.270;4.456;2023-06-24T14:24:53;5.47;;;2.88;;
9496;SDS011;4786;51.270;4.456;2023-06-24T14:27:20;4.90;;;2.80;;
9496;SDS011;4786;51.270;4.456;2023-06-24T14:29:46;3.10;;;2.75;;
9496;SDS011;4786;51.270;4.456;2023-06-24T14:32:12;4.43;;;3.08;;
9496;SDS011;4786;51.270;4.456;2023-06-24T14:34:38;2.70;;;2.50;;
9496;SDS011;4786;51.270;4.456;2023-06-24T14:37:04;3.05;;;2.50;;
9496;SDS011;4786;51.270;4.456;2023-06-24T14:39:30;3.17;;;2.80;;
9496;SDS011;4786;51.270;4.456;2023-06-24T14:41:56;2.80;;;2.60;;
9496;SDS011;4786;51.270;4.456;2023-06-24T14:44:22;3.10;;;2.80;;
9496;SDS011;4786;51.270;4.456;2023-06-24T14:46:48;3.22;;;2.83;;
9496;SDS011;4786;51.270;4.456;2023-06-24T14:49:14;3.60;;;3.05;;
9496;SDS011;4786;51.270;4.456;2023-06-24T14:51:40;3.45;;;3.15;;
9496;SDS011;4786;51.270;4.456;2023-06-24T14:54:06;3.38;;;3.08;;
9496;SDS011;4786;51.270;4.456;2023-06-24T14:56:32;3.75;;;3.45;;
9496;SDS011;4786;51.270;4.456;2023-06-24T14:58:58;3.90;;;3.60;;
9496;SDS011;4786;51.270;4.456;2023-06-24T15:01:24;3.42;;;3.13;;
9496;SDS011;4786;51.270;4.456;2023-06-24T15:03:50;3.83;;;3.13;;
9496;SDS011;4786;51.270;4.456;2023-06-24T15:06:16;2.97;;;2.78;;
9496;SDS011;4786;51.270;4.456;2023-06-24T15:08:42;4.40;;;3.28;;
9496;SDS011;4786;51.270;4.456;2023-06-24T15:11:08;3.05;;;2.75;;
9496;SDS011;4786;51.270;4.456;2023-06-24T15:13:34;4.30;;;2.92;;
9496;SDS011;4786;51.270;4.456;2023-06-24T15:16:00;3.20;;;2.90;;
9496;SDS011;4786;51.270;4.456;2023-06-24T15:18:27;3.33;;;3.03;;
9496;SDS011;4786;51.270;4.456;2023-06-24T15:20:54;4.55;;;3.42;;
9496;SDS011;4786;51.270;4.456;2023-06-24T15:23:21;4.28;;;2.70;;
9496;SDS011;4786;51.270;4.456;2023-06-24T15:25:47;4.55;;;4.15;;
9496;SDS011;4786;51.270;4.456;2023-06-24T15:28:15;9.13;;;8.23;;
9496;SDS011;4786;51.270;4.456;2023-06-24T15:30:40;8.55;;;7.78;;